Airborne Airpark
KILN : now visible

Airfield :











YOU CAN JOIN US ON...

 
LOGIN :

Register | Disclaimer

   EN    FR    IT 

 









Legend :    VFR   Marginal VFR   IFR   Intensive IFR   Very Intensive IFR
Visi :
Ceiling :
>= 8 km
>= 3000ft
5 to 8 km
1000 to 3000 ft
1500m to 5 km
500 to 1000 ft
800 to 1500m
200 to 500 ft
< 800m
< 200 ft
Symbols :   Thunderstorms  Fog  Heavy snow  Heavy precipitations  Wind > 20 kt






- Airport Elevation : 1077 ft


KILN - Airborne Airpark

CURRENT METAR :
  • 141954Z AUTO 05006KT 10SM CLR 26/22 A2996 RMK AO2 SLP135 T02560217

EXPIRED METARs :
  • 141854Z AUTO 28005KT 10SM BKN055 26/21 A2998 RMK AO2 SLP143 T02610211
  • 141754Z AUTO 33005KT 10SM CLR 25/21 A2999 RMK AO2 SLP147 60000 T02500206 10250 20217 58008

TAF KILN
Valid from the 14 at 18:00 until the 15 at 18:00 UTC


141727Z 1418/1518 VRB04KT P6SM -SHRA BKN070 OVC100
FM142100 VRB04KT P6SM VCSH BKN060 OVC100
TEMPO 1423/1503 -TSRA BKN040CB OVC060
FM150800 02003KT P6SM VCSH BKN035 BKN120
FM151000 04004KT P6SM BKN025 BKN120
FM151700 07009KT P6SM FEW025 BKN040
KZID FIR / North America



MET'MAP, your aeronautical weather chart ! - Copyright ORBIFLY December 2007 - Disclaimer

ORBIFLY MET'MAP TEAM :

Programming & Development : Alexandra Zaïnal
Concept & original design : Baudouin d'Aumeries
Assistance for programming : Marc-Olivier Méhu
Technical & hardware support : Manuel Goepfert

Contact : metmap@orbifly.com




SOURCES & CREDITS :

   NOAA       Earth
Advisory